Time;durP1;ratioP1;P1;durP2;ratioP2;P2;SDS_P1;SDS_P2;PMS_P1;PMS_P2;Temp;Humidity;BMP_temperature;BMP_pressure;BME280_temperature;BME280_humidity;BME280_pressure;Samples;Min_cycle;Max_cycle;Signal;HPM_P1;HPM_P2
2022/04/18 00:02:19;;;;;;;22.23;14.02;;;;;;;8.45;49.83;101918.47;5156795;27;20076;-54
2022/04/18 00:04:45;;;;;;;24.58;14.23;;;;;;;8.42;49.83;101918.97;5156527;27;20038;-55
2022/04/18 00:07:10;;;;;;;24.05;13.68;;;;;;;8.38;49.77;101923.38;5156468;27;20033;-56
2022/04/18 00:09:39;;;;;;;22.65;13.90;;;;;;;8.30;50.14;101918.38;5155978;27;20505;-57
2022/04/18 00:12:04;;;;;;;22.98;14.15;;;;;;;8.26;50.25;101909.78;5155205;27;20483;-55
2022/04/18 00:14:30;;;;;;;22.33;13.60;;;;;;;8.24;50.33;101923.00;5156404;27;20041;-56
2022/04/18 00:16:56;;;;;;;22.65;13.02;;;;;;;8.18;50.39;101913.00;5156572;27;20034;-55
2022/04/18 00:19:22;;;;;;;23.20;13.82;;;;;;;8.17;50.67;101920.47;5156416;27;20022;-55
2022/04/18 00:21:47;;;;;;;22.23;13.32;;;;;;;8.14;50.52;101912.72;5156442;27;20023;-56
2022/04/18 00:24:14;;;;;;;22.33;12.82;;;;;;;8.07;50.70;101912.97;5156210;27;20102;-55
2022/04/18 00:26:40;;;;;;;21.67;12.30;;;;;;;8.02;50.57;101907.38;5137962;27;20490;-55
2022/04/18 00:29:06;;;;;;;21.85;12.20;;;;;;;8.03;50.67;101911.81;5156247;27;20019;-55
2022/04/18 00:31:31;;;;;;;20.92;12.20;;;;;;;7.94;50.77;101900.41;5156139;27;20019;-56
2022/04/18 00:33:57;;;;;;;23.10;12.77;;;;;;;7.91;50.88;101898.22;5156250;27;20029;-55
2022/04/18 00:36:22;;;;;;;22.02;12.18;;;;;;;7.87;51.35;101899.81;5156099;27;20106;-56
2022/04/18 00:38:47;;;;;;;22.58;12.43;;;;;;;7.85;50.72;101895.66;5137292;27;20114;-56
2022/04/18 00:41:12;;;;;;;21.30;12.18;;;;;;;7.81;50.59;101896.19;5156406;27;20026;-57
2022/04/18 00:43:46;;;;;;;20.95;12.02;;;;;;;7.80;50.59;101897.28;5156129;27;20102;-57
2022/04/18 00:46:13;;;;;;;21.60;11.50;;;;;;;7.80;50.87;101899.22;5155899;27;20494;-56
2022/04/18 00:48:39;;;;;;;21.80;12.20;;;;;;;7.76;50.70;101898.06;5155851;27;20039;-56
2022/04/18 00:51:06;;;;;;;21.40;11.75;;;;;;;7.73;50.93;101904.09;5155718;27;20033;-53
2022/04/18 00:53:32;;;;;;;21.35;11.85;;;;;;;7.69;51.22;101903.81;5155648;27;20030;-55
2022/04/18 00:55:58;;;;;;;20.73;11.93;;;;;;;7.60;51.39;101897.91;5155278;27;20178;-55
2022/04/18 00:58:24;;;;;;;20.70;11.10;;;;;;;7.56;51.13;101895.94;5155398;27;20038;-55
2022/04/18 01:00:49;;;;;;;21.15;11.43;;;;;;;7.51;52.03;101893.97;5155487;27;20160;-55
2022/04/18 01:03:15;;;;;;;20.10;11.18;;;;;;;7.47;52.09;101895.56;5155355;27;20378;-55
2022/04/18 01:05:41;;;;;;;22.08;10.85;;;;;;;7.42;52.44;101898.28;5155382;27;20058;-55
2022/04/18 01:08:07;;;;;;;20.67;11.38;;;;;;;7.39;52.36;101896.03;5155510;27;20023;-55
2022/04/18 01:10:32;;;;;;;19.80;11.00;;;;;;;7.33;51.59;101890.50;5155850;27;20466;-56
2022/04/18 01:12:57;;;;;;;22.52;11.40;;;;;;;7.27;52.99;101890.69;5154480;27;20112;-54
2022/04/18 01:15:23;;;;;;;21.63;11.13;;;;;;;7.21;53.41;101886.22;5155314;27;20026;-55
2022/04/18 01:17:48;;;;;;;20.08;10.65;;;;;;;7.17;53.40;101889.47;5136700;27;20481;-56
2022/04/18 01:20:13;;;;;;;21.65;10.82;;;;;;;7.14;52.96;101889.97;5155465;27;20022;-58
2022/04/18 01:22:39;;;;;;;21.95;10.73;;;;;;;7.15;52.84;101897.16;5154973;27;20030;-56
2022/04/18 01:30:32;;;;;;;20.98;10.20;;;;;;;7.02;53.17;101895.63;5155164;27;20082;-56
2022/04/18 01:32:57;;;;;;;20.80;10.40;;;;;;;6.93;53.30;101891.66;5136409;27;20039;-56
2022/04/18 01:35:22;;;;;;;19.77;10.20;;;;;;;6.85;53.60;101889.34;5155052;27;20550;-56
2022/04/18 01:37:48;;;;;;;19.48;10.02;;;;;;;6.78;54.54;101888.72;5154925;27;20019;-57
2022/04/18 01:40:13;;;;;;;19.55;10.20;;;;;;;6.73;54.08;101895.00;5154872;27;20075;-56
2022/04/18 01:42:38;;;;;;;21.80;10.10;;;;;;;6.69;54.16;101889.16;5154702;27;20033;-57
2022/04/18 01:45:05;;;;;;;19.50;10.38;;;;;;;6.67;54.00;101885.00;5154746;27;20069;-56
2022/04/18 01:47:30;;;;;;;21.08;10.30;;;;;;;6.58;54.86;101889.25;5154498;27;20029;-55
2022/04/18 01:49:55;;;;;;;18.83;10.35;;;;;;;6.52;55.72;101875.47;5136109;27;20018;-57
2022/04/18 01:52:20;;;;;;;19.13;9.63;;;;;;;6.50;55.48;101883.13;5154778;27;20478;-57
2022/04/18 01:54:46;;;;;;;19.33;9.35;;;;;;;6.48;54.96;101887.22;5154853;27;20027;-55
2022/04/18 01:57:11;;;;;;;18.65;10.02;;;;;;;6.46;55.04;101886.63;5154719;27;20087;-56
2022/04/18 01:59:36;;;;;;;19.27;9.77;;;;;;;6.41;55.47;101876.38;5154722;27;20118;-55
2022/04/18 02:02:02;;;;;;;18.00;9.45;;;;;;;6.37;55.51;101881.56;5154962;27;20027;-55
2022/04/18 02:04:27;;;;;;;17.80;9.57;;;;;;;6.36;55.02;101876.31;5154459;27;20026;-55
2022/04/18 02:06:52;;;;;;;17.00;8.65;;;;;;;6.35;55.52;101871.91;5154504;27;20030;-55
2022/04/18 02:09:18;;;;;;;18.20;9.52;;;;;;;6.37;54.39;101872.50;5154512;27;20466;-57
2022/04/18 02:11:43;;;;;;;19.20;9.27;;;;;;;6.28;56.19;101868.50;5154477;27;20014;-57
2022/04/18 02:14:08;;;;;;;18.33;9.35;;;;;;;6.23;56.23;101874.75;5154384;27;20030;-56
2022/04/18 02:16:34;;;;;;;18.38;9.40;;;;;;;6.15;56.66;101872.41;5154417;27;20041;-57
2022/04/18 02:18:59;;;;;;;20.08;9.85;;;;;;;6.10;56.88;101870.41;5154296;27;20097;-56
2022/04/18 02:21:24;;;;;;;18.35;9.30;;;;;;;6.06;56.87;101872.03;5154348;27;20027;-56
2022/04/18 02:23:50;;;;;;;18.83;9.35;;;;;;;6.00;56.64;101867.53;5154218;27;20045;-55
2022/04/18 02:26:15;;;;;;;18.60;8.88;;;;;;;5.97;57.18;101877.06;5155067;22;20414;-54
2022/04/18 02:28:41;;;;;;;17.65;8.90;;;;;;;5.95;56.24;101868.25;5133758;28;20077;-54
2022/04/18 02:31:06;;;;;;;20.10;9.38;;;;;;;5.92;56.63;101860.50;5133528;28;20485;-52
2022/04/18 02:33:32;;;;;;;18.80;9.40;;;;;;;5.88;56.94;101862.06;5115089;28;20034;-53
2022/04/18 02:35:57;;;;;;;18.38;9.20;;;;;;;5.83;56.92;101862.00;5135320;27;20122;-54
2022/04/18 02:38:22;;;;;;;19.33;9.75;;;;;;;5.81;56.97;101869.66;5138240;27;20031;-53
2022/04/18 02:40:48;;;;;;;17.77;9.07;;;;;;;5.77;57.12;101859.16;5137849;27;20023;-53
2022/04/18 02:43:13;;;;;;;16.27;8.45;;;;;;;5.74;57.27;101862.41;5137648;27;20478;-53
2022/04/18 02:45:38;;;;;;;19.52;9.25;;;;;;;5.70;57.11;101855.75;5137602;27;20031;-53
2022/04/18 02:48:05;;;;;;;18.83;9.15;;;;;;;5.68;57.84;101860.66;5119247;27;20059;-53
2022/04/18 02:50:30;;;;;;;19.33;9.38;;;;;;;5.61;57.73;101857.22;5119251;27;20496;-54
2022/04/18 02:52:56;;;;;;;18.35;9.23;;;;;;;5.55;58.45;101858.22;5137584;27;20027;-53
2022/04/18 02:55:22;;;;;;;19.08;9.73;;;;;;;5.52;57.87;101856.81;5119346;27;20019;-54
2022/04/18 02:57:47;;;;;;;20.10;9.80;;;;;;;5.46;58.26;101844.06;5137550;27;20031;-53
2022/04/18 03:00:13;;;;;;;17.85;10.13;;;;;;;5.40;58.85;101845.06;5137320;27;20035;-53
2022/04/18 03:02:39;;;;;;;18.75;9.75;;;;;;;5.33;59.46;101845.22;5137253;27;20569;-53
2022/04/18 03:05:06;;;;;;;20.10;10.65;;;;;;;5.26;60.60;101839.06;5137160;27;20026;-54
2022/04/18 03:07:33;;;;;;;18.80;9.75;;;;;;;5.16;59.99;101847.91;5137246;27;20027;-54
2022/04/18 03:09:58;;;;;;;20.13;9.90;;;;;;;5.09;60.41;101828.88;5137259;27;20098;-53
2022/04/18 03:12:23;;;;;;;20.08;10.30;;;;;;;5.04;60.99;101836.16;5137057;27;20073;-54
2022/04/18 03:14:49;;;;;;;18.55;9.75;;;;;;;4.98;60.73;101832.50;5137060;27;20034;-53
2022/04/18 03:17:15;;;;;;;18.45;9.70;;;;;;;4.95;60.61;101831.06;5136982;27;20050;-54
2022/04/18 03:19:40;;;;;;;18.70;9.32;;;;;;;4.94;60.12;101832.16;5137037;27;20031;-54
2022/04/18 03:22:06;;;;;;;20.58;9.27;;;;;;;4.90;60.72;101832.88;5136909;27;20023;-54
2022/04/18 03:24:31;;;;;;;19.70;9.60;;;;;;;4.89;60.28;101826.53;5118557;27;20051;-53
2022/04/18 03:26:57;;;;;;;17.98;9.43;;;;;;;4.87;60.44;101827.88;5136616;27;20120;-53
2022/04/18 03:29:22;;;;;;;18.75;9.55;;;;;;;4.87;60.21;101827.88;5137334;27;20033;-54
2022/04/18 03:31:49;;;;;;;18.60;9.55;;;;;;;4.87;60.21;101825.13;5136848;27;20111;-54
2022/04/18 03:34:14;;;;;;;18.05;9.60;;;;;;;4.83;60.91;101827.53;5118349;27;20102;-54
2022/04/18 03:42:09;;;;;;;17.88;9.15;;;;;;;4.76;60.48;101827.66;5136569;27;20124;-55
2022/04/18 03:44:34;;;;;;;18.65;9.90;;;;;;;4.71;61.57;101827.56;5136695;27;20020;-54
2022/04/18 03:46:59;;;;;;;18.55;9.77;;;;;;;4.71;61.43;101823.97;5136079;27;20387;-54
2022/04/18 03:49:24;;;;;;;19.50;9.48;;;;;;;4.69;61.29;101829.72;5136499;27;20031;-54
2022/04/18 03:51:50;;;;;;;20.05;9.77;;;;;;;4.63;62.26;101826.03;5136371;27;20420;-50
2022/04/18 03:54:15;;;;;;;19.88;9.73;;;;;;;4.63;61.85;101833.44;5136418;27;20025;-54
2022/04/18 03:56:40;;;;;;;18.42;9.00;;;;;;;4.60;61.82;101822.94;5136165;27;20420;-54
2022/04/18 03:59:06;;;;;;;20.33;10.48;;;;;;;4.60;61.17;101826.50;5136434;27;20157;-54
2022/04/18 04:01:31;;;;;;;18.15;9.45;;;;;;;4.59;61.24;101824.84;5136231;27;20436;-52
2022/04/18 04:03:56;;;;;;;20.17;9.70;;;;;;;4.60;61.39;101823.75;5136190;27;20073;-54
2022/04/18 04:06:21;;;;;;;20.20;10.68;;;;;;;4.57;61.92;101817.94;5136340;27;20031;-54
2022/04/18 04:08:47;;;;;;;19.63;9.68;;;;;;;4.55;61.92;101818.19;5135905;27;20504;-52
2022/04/18 04:11:12;;;;;;;18.90;9.65;;;;;;;4.55;61.78;101818.19;5136019;27;20019;-54
2022/04/18 04:13:37;;;;;;;22.20;10.25;;;;;;;4.53;61.77;101823.88;5136011;27;20133;-54
2022/04/18 04:16:03;;;;;;;18.23;9.45;;;;;;;4.51;61.77;101820.59;5136004;27;20530;-54
2022/04/18 04:18:28;;;;;;;20.38;10.48;;;;;;;4.45;62.45;101817.97;5135907;27;20039;-54
2022/04/18 04:20:53;;;;;;;18.77;9.70;;;;;;;4.40;62.24;101817.84;5135973;27;20025;-53
2022/04/18 04:23:18;;;;;;;19.40;9.93;;;;;;;4.36;62.93;101823.81;5135610;27;20524;-54
2022/04/18 04:25:44;;;;;;;18.30;10.10;;;;;;;4.31;62.12;101812.72;5135337;27;20047;-54
2022/04/18 04:28:09;;;;;;;19.58;10.00;;;;;;;4.31;62.09;101820.94;5136204;27;20019;-54
2022/04/18 04:30:34;;;;;;;18.48;9.88;;;;;;;4.29;62.16;101820.38;5135803;27;20023;-54
2022/04/18 04:33:00;;;;;;;20.40;10.27;;;;;;;4.28;62.81;101817.84;5135545;27;20574;-54
2022/04/18 04:35:25;;;;;;;20.30;10.10;;;;;;;4.28;62.88;101815.13;5117034;27;20035;-53
2022/04/18 04:37:50;;;;;;;21.95;10.05;;;;;;;4.29;62.74;101817.63;5135785;27;20025;-53
2022/04/18 04:40:16;;;;;;;19.30;9.57;;;;;;;4.27;63.04;101819.78;5135347;27;20019;-53
2022/04/18 04:42:41;;;;;;;19.33;9.95;;;;;;;4.26;63.22;101815.38;5135586;27;20048;-53
2022/04/18 04:45:06;;;;;;;20.90;10.18;;;;;;;4.25;63.72;101818.34;5135478;27;20039;-53
2022/04/18 04:47:32;;;;;;;19.73;10.23;;;;;;;4.22;63.13;101823.22;5135316;27;20391;-53
2022/04/18 04:49:57;;;;;;;19.55;10.40;;;;;;;4.18;63.38;101827.50;5135220;27;20042;-54
2022/04/18 04:52:22;;;;;;;19.90;10.38;;;;;;;4.16;63.34;101818.69;5135200;27;20027;-54
2022/04/18 04:54:49;;;;;;;19.80;10.50;;;;;;;4.17;63.56;101827.75;5135091;27;20100;-53
2022/04/18 04:57:14;;;;;;;20.92;10.52;;;;;;;4.16;64.18;101828.84;5134974;27;20027;-54
2022/04/18 04:59:39;;;;;;;19.15;10.50;;;;;;;4.17;63.65;101825.03;5134412;27;20033;-54
2022/04/18 05:02:05;;;;;;;20.45;10.88;;;;;;;4.18;63.47;101827.50;5135096;27;20015;-52
2022/04/18 05:04:31;;;;;;;19.05;10.25;;;;;;;4.19;64.01;101826.44;5134997;27;20068;-53
2022/04/18 05:06:56;;;;;;;20.33;10.73;;;;;;;4.22;63.84;101825.13;5134709;27;20027;-50
2022/04/18 05:09:21;;;;;;;18.63;10.18;;;;;;;4.27;62.86;101829.88;5134859;27;20023;-52
2022/04/18 05:11:47;;;;;;;19.40;10.10;;;;;;;4.30;63.95;101830.22;5116195;27;20023;-54
2022/04/18 05:14:14;;;;;;;19.60;10.20;;;;;;;4.37;63.22;101830.13;5134708;27;20103;-53
2022/04/18 05:16:40;;;;;;;20.70;10.30;;;;;;;4.39;63.51;101843.59;5134810;27;20488;-53
2022/04/18 05:19:05;;;;;;;19.08;10.02;;;;;;;4.42;62.92;101845.84;5134724;27;20035;-53
2022/04/18 05:21:31;;;;;;;19.42;10.23;;;;;;;4.47;62.56;101852.25;5134869;27;20019;-53
2022/04/18 05:23:56;;;;;;;18.70;9.55;;;;;;;4.53;62.11;101848.56;5134552;27;20076;-53
2022/04/18 05:26:22;;;;;;;19.10;9.60;;;;;;;4.56;61.66;101849.16;5115995;27;20506;-54
2022/04/18 05:28:47;;;;;;;22.92;11.50;;;;;;;4.63;62.10;101847.13;5116145;27;20051;-52
2022/04/18 05:31:17;;;;;;;20.75;10.98;;;;;;;4.72;61.42;101850.31;5134641;27;20023;-54
2022/04/18 05:33:42;;;;;;;22.42;10.93;;;;;;;4.80;60.90;101845.31;5134541;27;20387;-54
2022/04/18 05:36:07;;;;;;;20.25;10.27;;;;;;;4.86;60.55;101845.41;5134087;27;20024;-54
2022/04/18 05:38:34;;;;;;;19.52;9.90;;;;;;;4.96;60.34;101842.88;5133188;27;20035;-54
2022/04/18 05:40:59;;;;;;;19.67;9.52;;;;;;;5.07;60.45;101835.66;5133876;27;20034;-53
2022/04/18 05:43:25;;;;;;;19.48;9.40;;;;;;;5.15;60.61;101844.34;5134217;27;20027;-54
2022/04/18 05:45:50;;;;;;;19.30;9.75;;;;;;;5.22;59.90;101841.44;5134221;27;20062;-56
2022/04/18 05:48:16;;;;;;;18.30;9.35;;;;;;;5.30;60.32;101842.94;5133975;27;20105;-54
2022/04/18 05:50:45;;;;;;;18.98;9.63;;;;;;;5.38;59.18;101837.09;5133905;27;20101;-53
2022/04/18 05:53:11;;;;;;;17.70;9.10;;;;;;;5.45;59.75;101829.53;5133957;27;20510;-51
2022/04/18 05:55:37;;;;;;;18.65;9.32;;;;;;;5.56;59.12;101830.53;5133702;27;20023;-57
2022/04/18 05:58:02;;;;;;;22.58;10.40;;;;;;;5.66;59.18;101829.88;5115401;27;20020;-52
2022/04/18 06:00:28;;;;;;;20.48;9.98;;;;;;;5.73;59.00;101835.19;5134209;27;20027;-52
2022/04/18 06:02:55;;;;;;;18.88;9.25;;;;;;;5.77;59.13;101828.94;5098620;27;20019;-54
2022/04/18 06:05:20;;;;;;;18.60;9.20;;;;;;;5.89;58.58;101833.53;5114712;27;20471;-54
2022/04/18 06:07:46;;;;;;;18.85;9.57;;;;;;;5.95;59.59;101835.28;5133874;27;20019;-51
2022/04/18 06:10:11;;;;;;;18.67;9.25;;;;;;;6.07;58.68;101835.22;5133673;27;20027;-52
2022/04/18 06:12:36;;;;;;;18.02;9.25;;;;;;;6.15;57.57;101839.44;5134000;27;20491;-52
2022/04/18 06:15:02;;;;;;;18.65;9.90;;;;;;;6.23;58.39;101833.53;5133741;27;20022;-52
2022/04/18 06:17:27;;;;;;;18.85;9.63;;;;;;;6.34;58.06;101846.31;5133928;27;20034;-52
2022/04/18 06:19:52;;;;;;;17.83;9.40;;;;;;;6.44;57.14;101840.16;5133822;27;20032;-51
2022/04/18 06:22:17;;;;;;;19.48;9.93;;;;;;;6.52;57.43;101838.88;5133277;27;20386;-51
2022/04/18 06:24:43;;;;;;;18.25;9.65;;;;;;;6.65;57.50;101840.44;5133016;27;20023;-50
2022/04/18 06:27:08;;;;;;;18.50;9.27;;;;;;;6.75;56.81;101850.72;5132659;27;20027;-51
2022/04/18 06:29:33;;;;;;;18.30;9.05;;;;;;;6.83;56.65;101853.88;5133598;28;20023;-50
2022/04/18 06:31:59;;;;;;;19.55;9.48;;;;;;;6.92;56.44;101861.66;5133412;28;20031;-51
2022/04/18 06:34:25;;;;;;;17.58;9.35;;;;;;;6.96;56.57;101851.78;5133527;28;20027;-53
2022/04/18 06:36:51;;;;;;;18.77;9.40;;;;;;;7.08;57.28;101843.44;5133142;28;20088;-54
2022/04/18 06:39:16;;;;;;;22.13;9.98;;;;;;;7.19;56.72;101845.19;5133212;28;20024;-53
2022/04/18 06:41:41;;;;;;;20.73;9.40;;;;;;;7.29;56.90;101845.28;5133422;28;20027;-54
2022/04/18 06:44:07;;;;;;;18.92;9.90;;;;;;;7.43;56.79;101847.63;5133115;28;20026;-51
2022/04/18 06:46:32;;;;;;;18.20;9.13;;;;;;;7.59;56.14;101843.94;5133521;28;20029;-53
2022/04/18 06:48:57;;;;;;;17.05;8.80;;;;;;;7.73;55.92;101840.75;5133446;28;20102;-54
2022/04/18 06:51:22;;;;;;;18.70;9.13;;;;;;;7.90;55.48;101846.94;5132608;28;20046;-50
2022/04/18 06:53:48;;;;;;;19.35;9.57;;;;;;;8.07;54.58;101851.47;5132986;28;20313;-54
2022/04/18 06:58:57;;;;;;;18.52;9.18;;;;;;;8.39;54.26;101834.06;5133683;28;20030;-54
2022/04/18 07:01:22;;;;;;;17.90;9.68;;;;;;;8.50;54.35;101840.47;5133338;28;20019;-54
2022/04/18 07:03:48;;;;;;;18.60;9.77;;;;;;;8.63;54.02;101830.88;5133039;28;20043;-55
2022/04/18 07:06:13;;;;;;;18.27;9.68;;;;;;;8.75;53.77;101834.25;5133187;28;20404;-54
2022/04/18 07:08:38;;;;;;;18.48;9.90;;;;;;;8.87;53.51;101834.03;5133262;28;20096;-52
2022/04/18 07:11:04;;;;;;;18.45;9.45;;;;;;;9.00;52.95;101828.00;5132662;28;20038;-54
2022/04/18 07:13:29;;;;;;;18.65;9.85;;;;;;;9.15;52.61;101832.75;5133017;28;20063;-54
2022/04/18 07:15:54;;;;;;;19.05;9.90;;;;;;;9.27;52.18;101834.41;5133165;28;20075;-55
2022/04/18 07:18:20;;;;;;;18.13;9.85;;;;;;;9.40;51.97;101841.34;5133031;28;20034;-54
2022/04/18 07:20:45;;;;;;;17.13;9.30;;;;;;;9.53;51.22;101821.47;5133113;27;20030;-54
2022/04/18 07:23:10;;;;;;;20.58;10.95;;;;;;;9.67;50.91;101832.78;5136795;27;20031;-53
2022/04/18 07:25:36;;;;;;;18.48;10.23;;;;;;;9.80;50.68;101831.41;5136457;27;20099;-55
2022/04/18 07:28:01;;;;;;;18.35;9.55;;;;;;;9.92;49.27;101823.69;5136708;27;20027;-55
2022/04/18 07:30:30;;;;;;;18.33;9.52;;;;;;;10.10;49.47;101826.97;5136904;27;20035;-54
2022/04/18 07:32:55;;;;;;;18.13;9.00;;;;;;;10.21;49.15;101827.78;5136456;27;20106;-55
2022/04/18 07:35:20;;;;;;;17.55;9.18;;;;;;;10.32;48.73;101832.19;5136644;27;20557;-54
2022/04/18 07:40:29;;;;;;;18.20;9.50;;;;;;;10.56;48.08;101828.84;5136705;27;20092;-55
2022/04/18 07:42:55;;;;;;;21.85;11.77;;;;;;;10.67;48.32;101830.47;5136498;27;20031;-53
2022/04/18 07:45:20;;;;;;;18.85;10.05;;;;;;;10.79;46.86;101823.75;5136507;27;20023;-51
2022/04/18 07:47:45;;;;;;;17.05;9.10;;;;;;;10.92;46.96;101823.16;5136328;27;20038;-54
2022/04/18 07:50:11;;;;;;;17.25;8.43;;;;;;;11.04;45.39;101823.66;5136321;27;20035;-54
2022/04/18 07:52:36;;;;;;;17.13;9.20;;;;;;;11.15;45.36;101824.41;5136484;27;20066;-54
2022/04/18 07:55:02;;;;;;;15.85;8.75;;;;;;;11.29;44.22;101813.50;5136363;27;20102;-55
2022/04/18 07:57:27;;;;;;;16.77;8.20;;;;;;;11.44;44.49;101820.03;5136554;27;20030;-54
2022/04/18 07:59:52;;;;;;;16.02;8.57;;;;;;;11.58;43.05;101815.53;5136378;27;20019;-52
2022/04/18 08:02:19;;;;;;;16.70;8.45;;;;;;;11.72;43.11;101810.16;5136129;27;20022;-55
2022/04/18 08:04:45;;;;;;;16.55;8.98;;;;;;;11.87;43.59;101809.19;5135909;27;20024;-52
2022/04/18 08:07:10;;;;;;;17.50;9.10;;;;;;;12.00;42.17;101810.47;5136296;27;20118;-53
2022/04/18 08:09:35;;;;;;;16.02;8.38;;;;;;;12.11;41.86;101808.41;5135796;27;20084;-54
2022/04/18 08:12:01;;;;;;;16.70;8.50;;;;;;;12.28;41.44;101808.78;5135795;27;20056;-55
2022/04/18 08:14:26;;;;;;;17.48;8.70;;;;;;;12.41;41.15;101815.59;5136036;27;20019;-55
2022/04/18 08:16:51;;;;;;;16.42;8.52;;;;;;;12.50;41.18;101807.44;5135788;27;20028;-53
2022/04/18 08:19:17;;;;;;;17.80;8.88;;;;;;;12.61;40.56;101805.38;5135988;27;20023;-54
2022/04/18 08:21:42;;;;;;;14.88;8.23;;;;;;;12.73;40.45;101803.00;5136225;27;20023;-54
2022/04/18 08:24:07;;;;;;;15.98;8.23;;;;;;;12.88;39.33;101801.16;5135745;27;20107;-54
2022/04/18 08:26:33;;;;;;;17.30;8.35;;;;;;;12.98;40.03;101809.34;5135637;27;20054;-54
2022/04/18 08:28:58;;;;;;;16.67;8.10;;;;;;;13.15;39.35;101808.00;5117146;27;20042;-53
2022/04/18 08:31:23;;;;;;;17.13;8.80;;;;;;;13.25;38.89;101799.50;5135694;27;20019;-54
2022/04/18 08:33:49;;;;;;;16.60;8.75;;;;;;;13.39;39.46;101805.16;5134402;27;20189;-55
2022/04/18 08:36:14;;;;;;;17.70;8.60;;;;;;;13.47;38.51;101801.69;5135434;27;20454;-55
2022/04/18 08:38:39;;;;;;;17.83;9.00;;;;;;;13.57;38.40;101803.47;5135337;27;20031;-53
2022/04/18 08:41:09;;;;;;;15.60;8.48;;;;;;;13.67;37.95;101803.31;5135120;27;20016;-55
2022/04/18 08:43:35;;;;;;;14.85;8.40;;;;;;;13.75;37.98;101801.78;5135489;27;20033;-55
2022/04/18 08:46:04;;;;;;;15.50;8.45;;;;;;;13.87;37.74;101802.16;5135128;27;20031;-53
2022/04/18 08:53:59;;;;;;;14.48;8.05;;;;;;;14.24;37.42;101793.94;5135352;27;20171;-54
2022/04/18 08:56:26;;;;;;;15.13;8.25;;;;;;;14.45;36.74;101797.13;5116884;27;20029;-55
2022/04/18 08:58:51;;;;;;;16.20;7.90;;;;;;;14.57;36.75;101796.63;5116448;27;20050;-53
2022/04/18 09:01:16;;;;;;;22.25;9.75;;;;;;;14.68;36.69;101791.69;5135179;27;20034;-53
2022/04/18 09:03:43;;;;;;;19.02;9.38;;;;;;;14.84;36.45;101796.94;5135015;27;20079;-53
2022/04/18 09:06:10;;;;;;;14.73;8.23;;;;;;;14.85;36.00;101790.22;5134683;27;20037;-52
2022/04/18 09:08:51;;;;;;;14.98;8.27;;;;;;;14.91;36.46;101789.00;5134761;27;20076;-53
2022/04/18 09:11:37;;;;;;;21.08;10.88;;;;;;;15.09;37.57;101795.53;5135235;27;20031;-54
2022/04/18 09:14:06;;;;;;;16.15;8.13;;;;;;;15.25;37.18;101794.06;5135047;27;20031;-54
2022/04/18 09:16:32;;;;;;;15.88;8.70;;;;;;;15.45;36.35;101789.09;5134782;27;20501;-54
2022/04/18 09:19:12;;;;;;;15.75;8.50;;;;;;;15.59;35.83;101794.63;5116359;27;20023;-54
2022/04/18 09:21:59;;;;;;;16.55;8.55;;;;;;;15.66;36.32;101775.50;5134444;27;20072;-53
2022/04/18 09:24:32;;;;;;;16.33;8.50;;;;;;;15.90;33.62;101793.88;5134786;27;20031;-53
2022/04/18 09:27:02;;;;;;;15.48;8.48;;;;;;;16.05;32.52;101790.69;5116061;27;20045;-54
2022/04/18 09:29:31;;;;;;;16.08;8.13;;;;;;;16.19;33.08;101790.59;5134953;27;20063;-53
2022/04/18 09:31:58;;;;;;;15.30;7.95;;;;;;;16.27;31.61;101782.56;5134891;27;20359;-54
2022/04/18 09:34:24;;;;;;;17.40;8.35;;;;;;;16.33;30.76;101786.84;5115960;27;20137;-54
2022/04/18 09:37:11;;;;;;;16.73;8.25;;;;;;;16.26;32.52;101770.56;5134502;27;20542;-54
2022/04/18 09:39:37;;;;;;;16.92;8.38;;;;;;;16.32;31.58;101786.03;5134343;27;20034;-54
2022/04/18 09:42:12;;;;;;;16.60;8.10;;;;;;;16.36;31.87;101781.44;5134265;27;20413;-53
2022/04/18 09:44:38;;;;;;;15.38;8.30;;;;;;;16.47;31.50;101775.56;5134044;27;20042;-53
2022/04/18 09:47:04;;;;;;;15.95;8.35;;;;;;;16.65;32.56;101777.25;5116099;27;20439;-53
2022/04/18 09:49:40;;;;;;;17.42;8.55;;;;;;;16.78;31.75;101771.88;5134204;27;20072;-52
2022/04/18 09:52:08;;;;;;;16.23;8.10;;;;;;;16.79;30.68;101753.94;5115996;27;20019;-53
2022/04/18 09:54:33;;;;;;;17.05;8.40;;;;;;;17.00;29.97;101759.75;5134140;27;20031;-54
2022/04/18 09:57:04;;;;;;;14.93;8.07;;;;;;;17.15;30.52;101762.03;5134370;27;20030;-54
2022/04/18 09:59:30;;;;;;;13.52;8.02;;;;;;;17.24;28.91;101761.25;5134282;27;20360;-55
2022/04/18 10:01:57;;;;;;;16.60;8.18;;;;;;;17.28;28.43;101765.84;5133893;27;20500;-54
2022/04/18 10:04:24;;;;;;;14.52;8.20;;;;;;;17.41;29.81;101760.41;5133903;27;20027;-54
2022/04/18 10:06:52;;;;;;;15.63;8.57;;;;;;;17.35;28.93;101751.34;5134130;27;20095;-54
2022/04/18 10:09:17;;;;;;;14.50;8.45;;;;;;;17.29;29.68;101755.47;5133748;27;20030;-55
2022/04/18 10:11:43;;;;;;;14.45;8.60;;;;;;;17.28;29.95;101754.66;5133881;27;20027;-55
2022/04/18 10:14:08;;;;;;;16.00;8.60;;;;;;;17.26;29.15;101750.53;5133932;27;20132;-55
2022/04/18 10:16:34;;;;;;;15.82;8.60;;;;;;;17.25;28.61;101751.69;5133718;27;20019;-55
2022/04/18 10:19:05;;;;;;;16.48;8.55;;;;;;;17.15;29.35;101739.69;5133606;27;20106;-54
2022/04/18 10:21:31;;;;;;;16.48;8.50;;;;;;;17.27;29.25;101741.84;5116323;27;20019;-55
2022/04/18 10:24:18;;;;;;;15.57;8.52;;;;;;;17.31;29.54;101734.41;5133644;27;20479;-56
2022/04/18 10:27:16;;;;;;;14.55;8.30;;;;;;;17.52;30.22;101739.31;5133409;27;20115;-54
2022/04/18 10:29:49;;;;;;;18.92;8.55;;;;;;;17.60;29.96;101730.09;5115633;28;20030;-55
2022/04/18 10:32:18;;;;;;;17.33;8.73;;;;;;;17.64;28.72;101732.22;5133799;28;20045;-55
2022/04/18 10:34:48;;;;;;;16.73;8.55;;;;;;;17.61;29.06;101736.53;5133410;28;20027;-55
2022/04/18 10:37:15;;;;;;;17.85;8.98;;;;;;;17.49;28.26;101730.78;5133608;28;20483;-55
2022/04/18 10:39:41;;;;;;;15.30;8.52;;;;;;;17.43;29.19;101730.13;5132747;28;20030;-55
2022/04/18 10:42:27;;;;;;;16.83;9.15;;;;;;;17.45;29.86;101731.44;5133332;28;20032;-54
2022/04/18 10:45:01;;;;;;;18.13;8.80;;;;;;;17.39;29.04;101723.53;5133303;28;20483;-56
2022/04/18 10:47:46;;;;;;;16.17;8.93;;;;;;;17.42;29.17;101726.53;5133607;28;20023;-55
2022/04/18 10:50:22;;;;;;;17.90;8.98;;;;;;;17.57;29.88;101718.75;5133332;28;20035;-55
2022/04/18 10:53:08;;;;;;;17.77;9.30;;;;;;;17.66;29.77;101722.34;5133270;28;20027;-55
2022/04/18 10:55:33;;;;;;;15.48;8.75;;;;;;;17.70;28.39;101711.28;5133237;27;20023;-55
2022/04/18 10:58:09;;;;;;;16.75;8.90;;;;;;;17.83;29.20;101718.66;5136387;27;20038;-55
2022/04/18 11:00:46;;;;;;;17.10;8.68;;;;;;;17.96;29.22;101702.84;5137626;27;20027;-57
2022/04/18 11:03:11;;;;;;;16.00;8.65;;;;;;;18.29;29.58;101707.75;5137261;27;20034;-56
2022/04/18 11:05:38;;;;;;;18.30;8.93;;;;;;;18.44;28.44;101717.56;5137621;27;20019;-55
2022/04/18 11:08:22;;;;;;;15.65;8.32;;;;;;;18.61;27.61;101707.44;5137513;27;20024;-55
2022/04/18 11:10:47;;;;;;;17.08;9.02;;;;;;;18.64;26.80;101707.56;5137439;27;20498;-55
2022/04/18 11:13:12;;;;;;;17.73;9.10;;;;;;;18.74;28.47;101705.53;5137315;27;20035;-57
2022/04/18 11:15:38;;;;;;;17.15;9.00;;;;;;;18.85;27.06;101704.75;5137374;27;20031;-56
2022/04/18 11:18:08;;;;;;;14.45;8.00;;;;;;;18.88;24.58;101691.22;5137394;27;20027;-55
2022/04/18 11:20:38;;;;;;;16.50;7.93;;;;;;;18.93;25.71;101700.28;5137118;27;20041;-55
2022/04/18 11:23:23;;;;;;;15.60;8.65;;;;;;;19.10;26.58;101695.69;5137072;27;20027;-55
2022/04/18 11:25:52;;;;;;;15.32;8.20;;;;;;;19.06;24.97;101700.31;5136182;27;20099;-55
2022/04/18 11:28:18;;;;;;;16.45;8.55;;;;;;;19.05;24.80;101693.91;5135803;28;20114;-56
2022/04/18 11:30:43;;;;;;;17.48;8.90;;;;;;;19.05;25.33;101681.84;5135809;28;20522;-55
2022/04/18 11:33:08;;;;;;;14.43;8.02;;;;;;;19.07;25.45;101688.78;5135910;28;20027;-55
2022/04/18 11:35:34;;;;;;;15.45;8.50;;;;;;;18.94;24.45;101682.28;5135929;28;20031;-55
2022/04/18 11:38:07;;;;;;;17.42;8.85;;;;;;;18.98;25.34;101688.03;5135570;28;20466;-55
2022/04/18 11:40:36;;;;;;;15.80;8.18;;;;;;;19.14;24.74;101691.84;5136258;28;20027;-55